Bookmark and Share
Track history (hours):
 

Leonid Leonov

Last reported at 2014-Apr-14 13:34 UTC. Time now 2014-Apr-17 21:57 UTC.
Position N 46°36' E 031°46'.

Length 89 m; draft 4.1 m.

Type: Cargo ship. MMSI: 256197000.

NotesDate/timePositionNaut miles runAvg speedWind from/ knotsBaromVisibWave heightAir tempDewpointWater temp
2014-Apr-14 13:34N 46°36' E 031°46'11 5.7
2014-Apr-14 11:33N 46°46' E 031°54'7 7.4
2014-Apr-14 10:34N 46°52' E 031°59'3 3.4
2014-Apr-14 09:33N 46°56' E 031°57'1 0.8
2014-Apr-14 08:33N 46°56' E 031°57'0 0.0
2014-Apr-14 07:33N 46°56' E 031°57'0 0.0
2014-Apr-14 06:33N 46°56' E 031°57'0 0.0
2014-Apr-14 05:33N 46°56' E 031°57'0 0.0
2014-Apr-13 22:33N 46°56' E 031°57'0 0.0
2014-Apr-13 21:33N 46°56' E 031°57'0 0.0
2014-Apr-13 20:33N 46°56' E 031°57'0 0.0
2014-Apr-13 19:33N 46°56' E 031°57'0 0.0
2014-Apr-13 18:33N 46°56' E 031°57'0 0.0
2014-Apr-13 17:33N 46°56' E 031°57'0 0.0
2014-Apr-13 16:33N 46°56' E 031°57'0 0.0
2014-Apr-13 15:33N 46°56' E 031°57'0 0.0
2014-Apr-13 14:33N 46°56' E 031°57'0 0.0
2014-Apr-13 13:33N 46°56' E 031°57'0 0.0
2014-Apr-13 12:33N 46°56' E 031°57'0 0.0
2014-Apr-13 11:33N 46°56' E 031°57'0 0.0
2014-Apr-13 10:33N 46°56' E 031°57'0 0.0
2014-Apr-13 09:33N 46°56' E 031°57'0 0.0
2014-Apr-13 08:33N 46°56' E 031°57'0 0.0
2014-Apr-13 07:33N 46°56' E 031°57'0 0.0
2014-Apr-13 06:33N 46°56' E 031°57'0 0.0
2014-Apr-13 05:33N 46°56' E 031°57'0 0.0
2014-Apr-13 04:33N 46°56' E 031°57'0 0.0
2014-Apr-13 03:33N 46°56' E 031°57'0 0.0
2014-Apr-13 02:33N 46°56' E 031°57'0 0.0
2014-Apr-13 01:33N 46°56' E 031°57'0 0.0
2014-Apr-13 00:33N 46°56' E 031°57'0 0.0
2014-Apr-12 23:33N 46°56' E 031°57'0 0.0
2014-Apr-12 22:33N 46°56' E 031°57'0 0.0
2014-Apr-12 19:30N 46°56' E 031°57'0 0.0
2014-Apr-12 18:33N 46°56' E 031°57'0 0.0
2014-Apr-12 17:33N 46°56' E 031°57'0 0.0
2014-Apr-12 16:33N 46°56' E 031°57'0 0.0
2014-Apr-12 15:33N 46°56' E 031°57'0 0.0
2014-Apr-12 14:33N 46°56' E 031°57'0 0.0
2014-Apr-12 13:33N 46°56' E 031°57'0 0.0
2014-Apr-12 12:30N 46°56' E 031°57'0 0.0
2014-Apr-12 11:33N 46°56' E 031°57'0 0.0
2014-Apr-12 10:27N 46°56' E 031°57'0 0.0
2014-Apr-12 09:33N 46°56' E 031°57'0 0.0
2014-Apr-12 08:33N 46°56' E 031°57'0 0.0
2014-Apr-12 07:33N 46°56' E 031°57'0 0.0
2014-Apr-12 06:33N 46°56' E 031°57'0 0.0
2014-Apr-12 05:34N 46°56' E 031°57'0 0.0
2014-Apr-12 04:34N 46°56' E 031°57'0 0.0
2014-Apr-12 03:34N 46°56' E 031°57'0 0.0
2014-Apr-12 02:34N 46°56' E 031°57'0 0.0
2014-Apr-12 01:34N 46°56' E 031°57'0 0.0
2014-Apr-12 00:34N 46°56' E 031°57'0 0.0
2014-Apr-11 23:34N 46°56' E 031°57'0 0.0
2014-Apr-11 22:34N 46°56' E 031°57'0 0.0
2014-Apr-11 21:34N 46°56' E 031°57'0 0.0
2014-Apr-11 20:33N 46°56' E 031°57'0 0.0
2014-Apr-11 19:34N 46°56' E 031°57'0 0.0
2014-Apr-11 18:34N 46°56' E 031°57'0 0.0
2014-Apr-11 17:34N 46°56' E 031°57'0 0.0
2014-Apr-11 16:33N 46°56' E 031°57'0 0.0
2014-Apr-11 15:33N 46°56' E 031°57'3 3.1
2014-Apr-11 14:34N 46°55' E 032°01'9 8.8
2014-Apr-11 13:34N 46°48' E 031°54'8 8.4
2014-Apr-11 12:34N 46°40' E 031°56'8 8.1
2014-Apr-11 11:34N 46°36' E 031°46'  

Dump ship's entire track history

sailing weather and tide predictions

Leonid Leonov — 9HNT8 — position and weather